Time;durP1;ratioP1;P1;durP2;ratioP2;P2;SDS_P1;SDS_P2;PMS_P1;PMS_P2;Temp;Humidity;BMP_temperature;BMP_pressure;BME280_temperature;BME280_humidity;BME280_pressure;Samples;Min_cycle;Max_cycle;Signal;HPM_P1;HPM_P2
2021/05/19 00:01:21;;;;;;;0.80;0.80;;;;;;;8.31;74.02;93272.81;5070050;28;20032;-42
2021/05/19 00:03:46;;;;;;;1.05;0.95;;;;;;;8.24;74.69;93265.19;5070345;28;20058;-42
2021/05/19 00:06:12;;;;;;;0.45;0.45;;;;;;;8.29;74.73;93267.84;5069866;28;20459;-42
2021/05/19 00:08:39;;;;;;;1.23;0.88;;;;;;;8.33;75.40;93267.50;5067027;28;20021;-41
2021/05/19 00:11:04;;;;;;;1.48;1.25;;;;;;;8.37;74.77;93270.66;5070010;28;20078;-41
2021/05/19 00:13:32;;;;;;;1.40;0.90;;;;;;;8.38;74.16;93263.88;5069518;28;20506;-42
2021/05/19 00:15:57;;;;;;;0.85;0.80;;;;;;;8.45;73.87;93263.19;5067447;28;20028;-42
2021/05/19 00:18:23;;;;;;;0.73;0.73;;;;;;;8.28;74.52;93263.63;5069810;28;20707;-42
2021/05/19 00:20:48;;;;;;;1.17;0.70;;;;;;;8.49;74.09;93265.63;5070217;28;20024;-42
2021/05/19 00:23:14;;;;;;;1.38;1.10;;;;;;;8.34;74.10;93266.22;5069555;28;20029;-41
2021/05/19 00:25:39;;;;;;;1.58;0.95;;;;;;;8.33;73.64;93259.25;5069792;28;20031;-41
2021/05/19 00:28:05;;;;;;;1.98;1.35;;;;;;;8.37;73.86;93262.41;5069615;28;20024;-43
2021/05/19 00:30:33;;;;;;;1.15;0.80;;;;;;;8.22;75.02;93260.25;5069926;28;20040;-41
2021/05/19 00:32:59;;;;;;;1.48;1.25;;;;;;;8.20;74.48;93262.06;5066663;28;20017;-41
2021/05/19 00:35:24;;;;;;;0.77;0.77;;;;;;;8.24;75.13;93267.94;5069676;28;20023;-41
2021/05/19 00:37:49;;;;;;;0.88;0.88;;;;;;;7.91;76.12;93274.25;5069648;28;20071;-43
2021/05/19 00:40:15;;;;;;;15.10;0.73;;;;;;;7.75;76.83;93272.66;5069467;28;20484;-41
2021/05/19 00:42:41;;;;;;;0.65;0.40;;;;;;;7.99;76.94;93269.59;5069367;28;20024;-42
2021/05/19 00:45:08;;;;;;;1.02;0.75;;;;;;;8.16;76.46;93272.66;5069449;28;20060;-41
2021/05/19 00:47:36;;;;;;;0.38;0.38;;;;;;;8.30;76.52;93269.31;5069361;28;20100;-42
2021/05/19 00:50:03;;;;;;;0.65;0.50;;;;;;;8.32;75.78;93263.28;5069066;28;20603;-41
2021/05/19 00:52:28;;;;;;;0.60;0.60;;;;;;;8.42;76.06;93264.28;5069281;28;20523;-41
2021/05/19 00:54:54;;;;;;;1.88;0.63;;;;;;;8.40;76.33;93264.09;5068972;28;20024;-43
2021/05/19 00:57:19;;;;;;;1.55;1.10;;;;;;;8.53;76.49;93266.75;5069248;28;20094;-43
2021/05/19 00:59:45;;;;;;;0.63;0.63;;;;;;;8.51;76.00;93252.78;5069353;28;20032;-42
2021/05/19 01:02:10;;;;;;;2.63;1.00;;;;;;;8.54;74.51;93262.72;5051607;28;20033;-43
2021/05/19 01:04:36;;;;;;;1.13;0.88;;;;;;;8.56;73.95;93254.66;5069199;28;20490;-44
2021/05/19 01:07:07;;;;;;;1.17;0.75;;;;;;;8.60;73.65;93257.78;5068857;28;20027;-41
2021/05/19 01:09:35;;;;;;;1.33;1.23;;;;;;;8.58;74.44;93256.84;5068916;28;20048;-42
2021/05/19 01:12:10;;;;;;;0.40;0.40;;;;;;;8.40;74.91;93255.84;5066750;28;20726;-42
2021/05/19 01:14:37;;;;;;;1.00;0.95;;;;;;;8.45;75.42;93259.69;5068957;28;20025;-42
2021/05/19 01:17:02;;;;;;;0.75;0.60;;;;;;;8.21;76.29;93252.50;5068620;28;20028;-43
2021/05/19 01:19:29;;;;;;;0.75;0.70;;;;;;;8.16;77.04;93256.16;5068535;28;20028;-45
2021/05/19 01:21:56;;;;;;;1.08;0.65;;;;;;;8.27;76.97;93264.16;5050968;28;20032;-41
2021/05/19 01:24:22;;;;;;;1.40;0.60;;;;;;;8.31;76.54;93259.06;5068724;28;20056;-42
2021/05/19 01:26:47;;;;;;;0.55;0.55;;;;;;;8.38;76.32;93261.13;5068403;28;20082;-40
2021/05/19 01:29:14;;;;;;;1.35;1.25;;;;;;;8.51;75.85;93269.28;5068660;28;20029;-42
2021/05/19 01:31:39;;;;;;;1.15;0.73;;;;;;;8.49;76.77;93263.56;5069619;28;20485;-41
2021/05/19 01:34:05;;;;;;;1.00;0.57;;;;;;;8.47;76.64;93268.16;5069508;28;20028;-42
2021/05/19 01:36:30;;;;;;;1.23;1.13;;;;;;;8.46;76.82;93261.91;5069576;28;20029;-42
2021/05/19 01:38:56;;;;;;;1.80;1.17;;;;;;;8.47;76.77;93262.66;5051798;28;20058;-41
2021/05/19 01:41:21;;;;;;;1.80;1.38;;;;;;;8.32;77.00;93260.53;5069899;28;20032;-42
2021/05/19 01:43:47;;;;;;;1.73;1.10;;;;;;;8.23;77.14;93261.72;5069232;28;20044;-42
2021/05/19 01:46:12;;;;;;;1.58;1.02;;;;;;;8.37;76.86;93259.66;5069843;28;20024;-41
2021/05/19 01:48:38;;;;;;;1.17;1.10;;;;;;;8.40;76.68;93253.09;5069498;28;20051;-41
2021/05/19 01:51:04;;;;;;;2.88;1.00;;;;;;;8.41;75.77;93238.03;5051684;28;20024;-41
2021/05/19 01:53:32;;;;;;;1.92;1.13;;;;;;;8.49;75.62;93255.31;5069810;28;20025;-40
2021/05/19 01:55:59;;;;;;;0.75;0.65;;;;;;;8.50;76.10;93253.31;5069391;28;20029;-42
2021/05/19 01:58:24;;;;;;;1.23;1.08;;;;;;;8.29;76.72;93253.38;5068256;28;20116;-41
2021/05/19 02:00:50;;;;;;;2.20;1.17;;;;;;;8.16;77.41;93259.66;5049490;28;20115;-42
2021/05/19 02:03:18;;;;;;;0.65;0.60;;;;;;;8.13;78.10;93251.72;5069460;28;20024;-41
2021/05/19 02:05:43;;;;;;;1.00;0.90;;;;;;;8.15;77.35;93254.66;5069547;28;20029;-45
2021/05/19 02:08:09;;;;;;;1.10;1.05;;;;;;;8.11;76.84;93255.03;5068796;28;20043;-45
2021/05/19 02:10:36;;;;;;;1.92;1.25;;;;;;;8.12;76.52;93245.47;5069345;28;20067;-44
2021/05/19 02:13:06;;;;;;;0.95;0.93;;;;;;;8.17;75.65;93249.38;5068904;28;20020;-42
2021/05/19 02:15:32;;;;;;;1.63;1.52;;;;;;;8.02;75.78;93252.00;5069111;28;20046;-44
2021/05/19 02:18:01;;;;;;;0.95;0.93;;;;;;;7.89;76.99;93260.31;5069399;28;20020;-43
2021/05/19 02:20:28;;;;;;;10.13;0.88;;;;;;;7.67;77.36;93258.09;5070135;28;20029;-41
2021/05/19 02:22:53;;;;;;;0.85;0.85;;;;;;;7.67;77.77;93255.34;5072951;28;20489;-42
2021/05/19 02:25:20;;;;;;;0.82;0.82;;;;;;;7.74;77.48;93254.66;5073296;28;20023;-41
2021/05/19 02:27:47;;;;;;;10.13;1.58;;;;;;;7.67;77.19;93261.56;5072925;28;20060;-41
2021/05/19 02:30:14;;;;;;;1.58;1.10;;;;;;;7.39;77.73;93242.97;5073281;28;20020;-42
2021/05/19 02:32:40;;;;;;;0.55;0.55;;;;;;;7.37;78.18;93255.75;5072863;28;20600;-42
2021/05/19 02:35:07;;;;;;;1.25;1.15;;;;;;;7.43;77.71;93246.13;5055115;28;20103;-42
2021/05/19 02:37:33;;;;;;;2.05;0.77;;;;;;;7.59;77.43;93258.00;5073061;28;20101;-42
2021/05/19 02:39:58;;;;;;;0.60;0.60;;;;;;;7.56;77.21;93251.56;5072627;28;20455;-41
2021/05/19 02:42:24;;;;;;;0.90;0.63;;;;;;;7.41;78.04;93251.41;5072999;28;20016;-42
2021/05/19 02:44:50;;;;;;;2.13;1.80;;;;;;;7.50;78.06;93250.22;5052858;28;20041;-41
2021/05/19 02:47:15;;;;;;;1.23;1.13;;;;;;;7.40;77.53;93254.69;5052765;28;20049;-42
2021/05/19 02:49:41;;;;;;;1.35;1.25;;;;;;;7.32;77.82;93246.34;5052701;28;20025;-40
2021/05/19 02:52:06;;;;;;;1.52;1.42;;;;;;;7.27;77.87;93249.97;5052881;28;20082;-40
2021/05/19 02:54:32;;;;;;;1.17;0.85;;;;;;;7.34;77.45;93248.59;5052764;28;20437;-41
2021/05/19 02:56:58;;;;;;;1.23;1.13;;;;;;;7.44;76.79;93241.38;5052362;28;20104;-40
2021/05/19 02:59:24;;;;;;;2.08;1.88;;;;;;;7.48;76.95;93239.03;5052795;28;20120;-40
2021/05/19 03:01:49;;;;;;;2.28;2.08;;;;;;;7.40;77.31;93238.97;5052830;28;20027;-40
2021/05/19 03:04:15;;;;;;;2.42;1.80;;;;;;;7.36;77.16;93244.00;5052735;28;20013;-42
2021/05/19 03:06:40;;;;;;;1.63;1.30;;;;;;;7.16;77.30;93241.97;5052632;28;20125;-42
2021/05/19 03:09:06;;;;;;;1.65;1.42;;;;;;;7.13;76.43;93245.78;5051807;28;20203;-42
2021/05/19 03:11:32;;;;;;;0.63;0.63;;;;;;;6.80;76.10;93244.44;5052152;28;20029;-42
2021/05/19 03:13:58;;;;;;;1.58;1.00;;;;;;;6.95;75.96;93254.91;5052396;28;20048;-44
2021/05/19 03:16:26;;;;;;;0.77;0.77;;;;;;;6.98;75.95;93253.81;5052545;28;20662;-41
2021/05/19 03:18:51;;;;;;;1.65;1.17;;;;;;;6.85;76.84;93254.59;5052369;28;20103;-42
2021/05/19 03:21:17;;;;;;;0.90;0.90;;;;;;;6.84;77.53;93264.06;5052493;28;20409;-43
2021/05/19 03:23:42;;;;;;;1.15;1.02;;;;;;;6.91;77.51;93262.69;5052168;28;20037;-44
2021/05/19 03:26:08;;;;;;;3.70;1.85;;;;;;;6.92;77.47;93253.22;5052336;28;20025;-43
2021/05/19 03:28:33;;;;;;;3.53;1.30;;;;;;;6.95;77.94;93268.63;5052300;28;20017;-43
2021/05/19 03:30:59;;;;;;;1.85;1.05;;;;;;;6.89;78.29;93271.47;5051361;28;20021;-42
2021/05/19 03:33:25;;;;;;;4.25;1.83;;;;;;;6.80;78.52;93279.38;5052062;28;20047;-43
2021/05/19 03:35:50;;;;;;;1.73;1.52;;;;;;;6.77;78.72;93275.72;5052076;28;20032;-40
2021/05/19 03:38:16;;;;;;;1.67;1.23;;;;;;;6.72;78.61;93273.81;5051679;28;20613;-41
2021/05/19 03:40:42;;;;;;;2.95;1.50;;;;;;;6.78;78.36;93273.69;5049234;28;20033;-44
2021/05/19 03:43:07;;;;;;;1.35;1.15;;;;;;;6.79;78.77;93277.91;5055047;28;20155;-41
2021/05/19 03:45:33;;;;;;;0.60;0.60;;;;;;;6.88;78.08;93272.00;5070040;28;20024;-41
2021/05/19 03:47:59;;;;;;;2.15;1.38;;;;;;;6.91;77.39;93273.69;5069817;28;20476;-41
2021/05/19 03:50:28;;;;;;;0.82;0.82;;;;;;;6.87;77.97;93276.00;5069741;28;20027;-40
2021/05/19 03:52:53;;;;;;;1.20;1.10;;;;;;;6.94;77.50;93269.88;5070409;28;20078;-41
2021/05/19 03:55:19;;;;;;;0.43;0.43;;;;;;;7.05;77.45;93271.66;5070750;28;20459;-42
2021/05/19 03:57:44;;;;;;;1.15;1.02;;;;;;;7.16;76.88;93280.41;5071231;28;20050;-41
2021/05/19 04:00:16;;;;;;;1.42;1.33;;;;;;;7.23;75.95;93285.28;5071174;28;20078;-41
2021/05/19 04:02:48;;;;;;;6.95;1.88;;;;;;;7.20;76.64;93282.81;5071452;28;20175;-41
2021/05/19 04:05:14;;;;;;;6.68;2.35;;;;;;;7.22;76.95;93288.53;5071051;28;20024;-42
2021/05/19 04:07:39;;;;;;;7.70;3.35;;;;;;;7.39;76.88;93275.91;5070700;28;20031;-41
2021/05/19 04:10:05;;;;;;;8.55;3.22;;;;;;;7.39;78.09;93275.91;5070902;28;20024;-41
2021/05/19 04:12:30;;;;;;;8.55;3.53;;;;;;;7.49;79.03;93273.47;5071157;28;20024;-41
2021/05/19 04:14:56;;;;;;;7.00;2.75;;;;;;;7.54;78.93;93276.09;5071040;28;20090;-41
2021/05/19 04:17:21;;;;;;;5.63;2.92;;;;;;;7.65;78.92;93275.84;5070855;28;20040;-41
2021/05/19 04:19:47;;;;;;;1.80;1.67;;;;;;;7.78;78.74;93272.31;5070723;28;20082;-41
2021/05/19 04:22:12;;;;;;;4.40;1.73;;;;;;;8.00;78.18;93274.53;5070788;28;20062;-42
2021/05/19 04:24:37;;;;;;;6.05;2.45;;;;;;;7.99;78.55;93267.53;5071076;28;20078;-42
2021/05/19 04:27:03;;;;;;;9.00;5.47;;;;;;;8.26;78.40;93259.94;5070866;28;20024;-41
2021/05/19 04:29:29;;;;;;;10.45;5.70;;;;;;;8.46;77.51;93267.44;5070648;28;20025;-41
2021/05/19 04:31:54;;;;;;;18.63;10.10;;;;;;;8.64;77.17;93265.72;5070570;28;20082;-42
2021/05/19 04:34:19;;;;;;;22.88;10.90;;;;;;;8.83;76.32;93258.69;5070534;28;20029;-42
2021/05/19 04:36:45;;;;;;;16.35;8.43;;;;;;;9.09;75.70;93252.94;5070477;28;20025;-41
2021/05/19 04:39:11;;;;;;;24.05;11.38;;;;;;;9.34;75.08;93252.47;5070327;28;20036;-42
2021/05/19 04:41:36;;;;;;;19.23;9.93;;;;;;;9.43;75.28;93254.72;5070268;28;20040;-42
2021/05/19 04:44:02;;;;;;;8.98;6.15;;;;;;;9.55;74.53;93236.59;5069440;28;20094;-42
2021/05/19 04:46:27;;;;;;;10.63;4.75;;;;;;;9.68;73.42;93247.47;5070527;28;20460;-43
2021/05/19 04:48:58;;;;;;;5.93;3.38;;;;;;;9.76;72.56;93254.47;5070254;28;20021;-41
2021/05/19 04:51:23;;;;;;;2.60;2.40;;;;;;;9.85;72.03;93255.94;5070274;28;20032;-41
2021/05/19 04:53:52;;;;;;;4.93;1.92;;;;;;;9.93;71.98;93262.22;5070099;28;20029;-42
2021/05/19 04:56:17;;;;;;;2.30;1.63;;;;;;;10.08;71.33;93259.47;5070412;28;20031;-41
2021/05/19 04:58:43;;;;;;;2.20;1.50;;;;;;;10.21;71.81;93267.59;5070237;28;20120;-40
2021/05/19 05:01:08;;;;;;;3.25;2.35;;;;;;;10.26;71.79;93263.94;5052088;28;20032;-41
2021/05/19 05:03:34;;;;;;;2.38;2.05;;;;;;;10.27;72.67;93267.41;5070330;28;20031;-41
2021/05/19 05:05:59;;;;;;;2.35;1.40;;;;;;;10.38;72.63;93259.53;5070354;28;20055;-42
2021/05/19 05:08:25;;;;;;;3.25;1.55;;;;;;;10.90;71.84;93265.53;5069885;28;20508;-44
2021/05/19 05:10:50;;;;;;;1.25;1.08;;;;;;;11.19;70.52;93261.97;5070133;28;20033;-45
2021/05/19 05:13:16;;;;;;;1.08;0.98;;;;;;;11.35;69.82;93263.41;5070325;28;20475;-45
2021/05/19 05:15:41;;;;;;;1.88;1.27;;;;;;;11.36;69.95;93255.84;5070061;28;20032;-41
2021/05/19 05:18:07;;;;;;;0.93;0.93;;;;;;;11.55;69.66;93264.44;5070230;28;20028;-41
2021/05/19 05:20:32;;;;;;;0.75;0.75;;;;;;;11.69;68.73;93251.88;5069738;28;20063;-43
2021/05/19 05:22:58;;;;;;;1.27;0.95;;;;;;;11.83;68.50;93249.56;5069597;28;20477;-41
2021/05/19 05:25:24;;;;;;;6.32;1.10;;;;;;;12.06;67.75;93252.94;5069676;28;20020;-42
2021/05/19 05:27:49;;;;;;;0.50;0.50;;;;;;;12.30;66.47;93245.97;5069877;28;20058;-42
2021/05/19 05:30:17;;;;;;;0.85;0.82;;;;;;;12.41;66.60;93242.72;5069791;28;20054;-43
2021/05/19 05:32:42;;;;;;;0.50;0.50;;;;;;;12.53;65.44;93236.16;5069855;28;20424;-41
2021/05/19 05:35:09;;;;;;;0.80;0.80;;;;;;;12.59;65.39;93233.16;5069339;28;20028;-42
2021/05/19 05:37:35;;;;;;;8.55;3.25;;;;;;;12.38;65.52;93246.63;5069473;28;20043;-43
2021/05/19 05:40:01;;;;;;;14.10;9.63;;;;;;;12.44;66.08;93241.59;5069379;28;20020;-43
2021/05/19 05:42:26;;;;;;;3.72;2.50;;;;;;;12.57;65.90;93246.84;5069411;28;20029;-42
2021/05/19 05:44:52;;;;;;;5.18;3.00;;;;;;;12.71;66.38;93245.25;5069164;28;20052;-41
2021/05/19 05:47:18;;;;;;;5.72;3.13;;;;;;;12.52;65.61;93243.00;5069644;28;20077;-42
2021/05/19 05:49:43;;;;;;;3.90;2.88;;;;;;;12.56;66.38;93242.63;5069397;28;20417;-42
2021/05/19 05:52:09;;;;;;;3.40;2.75;;;;;;;12.70;66.54;93232.69;5068779;28;20027;-40
2021/05/19 05:54:34;;;;;;;4.68;2.60;;;;;;;12.86;64.72;93243.06;5069468;28;20024;-43
2021/05/19 05:57:00;;;;;;;2.72;2.30;;;;;;;12.76;63.43;93239.47;5048746;28;20508;-43
2021/05/19 05:59:25;;;;;;;1.98;1.88;;;;;;;12.64;66.05;93251.59;5069450;28;20020;-42
2021/05/19 06:01:51;;;;;;;3.33;2.17;;;;;;;12.77;65.69;93238.19;5069238;28;20036;-42
2021/05/19 06:04:16;;;;;;;2.38;1.20;;;;;;;12.89;66.47;93244.69;5069080;28;20024;-43
2021/05/19 06:06:42;;;;;;;3.55;1.98;;;;;;;12.79;65.99;93240.38;5069218;28;20037;-42
2021/05/19 06:09:07;;;;;;;1.08;0.98;;;;;;;12.89;66.11;93236.38;5069039;28;20037;-42
2021/05/19 06:11:33;;;;;;;2.28;1.30;;;;;;;13.03;66.78;93233.28;5068853;28;20025;-45
2021/05/19 06:13:59;;;;;;;1.20;0.80;;;;;;;13.18;66.20;93231.13;5069408;28;20031;-43
2021/05/19 06:16:24;;;;;;;1.40;1.08;;;;;;;13.25;65.47;93224.03;5071099;28;20558;-44
2021/05/19 06:18:50;;;;;;;3.35;1.75;;;;;;;13.50;65.56;93228.16;5068956;28;20063;-42
2021/05/19 06:21:15;;;;;;;1.10;1.00;;;;;;;13.62;64.27;93223.56;5068950;28;20037;-43
2021/05/19 06:23:40;;;;;;;2.05;1.00;;;;;;;13.64;63.24;93218.19;5069039;28;20032;-43
2021/05/19 06:26:06;;;;;;;1.52;1.00;;;;;;;13.79;64.03;93214.50;5058439;28;20086;-44
2021/05/19 06:28:32;;;;;;;1.67;1.08;;;;;;;13.97;63.81;93206.84;5049239;28;20029;-44
2021/05/19 06:30:57;;;;;;;0.98;0.63;;;;;;;14.23;62.20;93222.72;5049119;28;20029;-47
2021/05/19 06:33:23;;;;;;;1.00;0.65;;;;;;;14.59;61.73;93222.75;5049191;28;20047;-41
2021/05/19 06:35:49;;;;;;;0.60;0.57;;;;;;;14.77;60.14;93210.22;5048822;28;20021;-40
2021/05/19 06:38:14;;;;;;;2.08;0.80;;;;;;;15.06;59.14;93213.78;5048791;28;20108;-42
2021/05/19 06:40:39;;;;;;;0.17;0.13;;;;;;;15.34;56.41;93215.09;5049021;28;20032;-40
2021/05/19 06:43:05;;;;;;;0.20;0.20;;;;;;;15.65;54.21;93213.22;5048484;28;20433;-42
2021/05/19 06:45:30;;;;;;;0.47;0.32;;;;;;;15.88;50.61;93202.34;5062616;28;20020;-43
2021/05/19 06:47:56;;;;;;;0.22;0.22;;;;;;;16.30;48.53;93199.00;5068165;28;20479;-41
2021/05/19 06:50:21;;;;;;;0.17;0.17;;;;;;;16.34;46.22;93198.53;5068733;28;20248;-40
2021/05/19 06:52:47;;;;;;;0.30;0.30;;;;;;;16.15;47.02;93185.41;5064174;28;20021;-42
2021/05/19 06:55:13;;;;;;;0.77;0.50;;;;;;;16.16;46.62;93200.78;5050140;28;20040;-43
2021/05/19 06:57:39;;;;;;;0.20;0.20;;;;;;;16.70;47.88;93195.44;5056369;28;20489;-42
2021/05/19 07:00:09;;;;;;;0.40;0.40;;;;;;;17.29;48.54;93188.91;5051835;28;20033;-42
2021/05/19 07:02:37;;;;;;;0.65;0.65;;;;;;;17.87;47.76;93183.56;5047329;28;20025;-41
2021/05/19 07:05:03;;;;;;;0.75;0.50;;;;;;;18.41;46.65;93180.63;5048770;28;20075;-41
2021/05/19 07:07:29;;;;;;;1.42;1.25;;;;;;;19.03;43.51;93187.19;5056263;28;20082;-42
2021/05/19 07:09:54;;;;;;;0.20;0.20;;;;;;;19.41;42.22;93189.44;5072460;28;20493;-42
2021/05/19 07:12:20;;;;;;;0.40;0.40;;;;;;;19.87;43.36;93190.59;5072451;28;20032;-42
2021/05/19 07:14:58;;;;;;;1.75;0.45;;;;;;;20.12;39.60;93177.28;5072523;28;20550;-41
2021/05/19 07:17:23;;;;;;;1.10;0.43;;;;;;;20.26;39.04;93180.16;5072598;28;20090;-42
2021/05/19 07:19:49;;;;;;;1.20;0.40;;;;;;;20.21;37.47;93167.28;5072045;28;20068;-42
2021/05/19 07:22:14;;;;;;;0.38;0.35;;;;;;;20.14;37.03;93163.38;5072092;28;20028;-41
2021/05/19 07:24:40;;;;;;;0.20;0.20;;;;;;;21.38;37.52;93162.13;5072427;28;20032;-41
2021/05/19 07:27:06;;;;;;;0.45;0.45;;;;;;;22.40;34.55;93152.28;5071922;28;20036;-44
2021/05/19 07:29:31;;;;;;;1.15;0.30;;;;;;;23.53;32.91;93157.25;5071889;28;20032;-43
2021/05/19 07:31:58;;;;;;;0.38;0.35;;;;;;;24.10;31.51;93161.75;5071599;28;20039;-41
2021/05/19 07:34:24;;;;;;;0.57;0.30;;;;;;;24.76;33.05;93169.25;5071824;28;20033;-42
2021/05/19 07:36:49;;;;;;;0.85;0.20;;;;;;;24.71;30.79;93156.31;5071865;28;20089;-43
2021/05/19 07:39:15;;;;;;;0.43;0.32;;;;;;;25.17;30.38;93145.28;5071622;28;20071;-41
2021/05/19 07:41:40;;;;;;;0.40;0.20;;;;;;;24.88;28.81;93145.66;5071732;28;20056;-44
2021/05/19 07:44:06;;;;;;;0.10;0.10;;;;;;;25.49;28.50;93147.16;5059954;28;20045;-41
2021/05/19 07:46:32;;;;;;;0.25;0.20;;;;;;;25.94;28.40;93137.31;5051611;28;20060;-43
2021/05/19 07:48:58;;;;;;;0.05;0.05;;;;;;;27.33;25.97;93127.31;5051320;28;20042;-42
2021/05/19 07:51:23;;;;;;;0.85;0.38;;;;;;;28.51;26.95;93130.28;5050719;28;20025;-42
2021/05/19 07:53:50;;;;;;;0.30;0.30;;;;;;;29.36;25.43;93123.56;5051345;28;20051;-44
2021/05/19 07:56:22;;;;;;;0.55;0.30;;;;;;;30.24;24.93;93117.97;5051383;28;20020;-41
2021/05/19 07:58:52;;;;;;;0.52;0.20;;;;;;;30.36;23.50;93126.75;5051245;28;20506;-42
2021/05/19 08:03:52;;;;;;;0.22;0.15;;;;;;;26.79;25.52;93115.91;5050009;28;20051;-43
2021/05/19 08:06:19;;;;;;;0.50;0.30;;;;;;;25.95;26.47;93125.34;5049517;28;20029;-41
2021/05/19 08:08:45;;;;;;;0.43;0.28;;;;;;;25.44;26.12;93119.41;5049820;28;20486;-41
2021/05/19 08:11:11;;;;;;;0.85;0.50;;;;;;;26.11;27.72;93123.06;5050131;28;20035;-42
2021/05/19 08:13:40;;;;;;;0.10;0.10;;;;;;;27.09;28.00;93126.66;5050764;28;20035;-41
2021/05/19 08:16:08;;;;;;;0.20;0.20;;;;;;;27.52;26.31;93112.25;5051132;28;20036;-42
2021/05/19 08:18:34;;;;;;;0.20;0.20;;;;;;;28.46;25.55;93116.66;5050772;28;20505;-41
2021/05/19 08:21:00;;;;;;;0.10;0.10;;;;;;;29.83;22.82;93110.91;5050538;28;20033;-43
2021/05/19 08:23:25;;;;;;;0.10;0.10;;;;;;;30.30;21.79;93110.25;5050236;28;20074;-42
2021/05/19 08:25:51;;;;;;;1.23;0.20;;;;;;;30.73;22.17;93108.78;5049888;28;20029;-42
2021/05/19 08:28:16;;;;;;;0.68;0.30;;;;;;;30.98;20.56;93104.84;5049938;28;20036;-41
2021/05/19 08:30:42;;;;;;;0.50;0.20;;;;;;;30.29;21.77;93116.66;5050608;28;20025;-42
2021/05/19 08:33:07;;;;;;;1.25;0.28;;;;;;;30.06;20.85;93112.00;5049863;28;20099;-43
2021/05/19 08:35:33;;;;;;;0.28;0.28;;;;;;;29.42;22.07;93114.41;5049724;28;20029;-43
2021/05/19 08:37:58;;;;;;;0.40;0.22;;;;;;;28.65;23.50;93095.09;5049729;28;20027;-42
2021/05/19 08:40:24;;;;;;;0.13;0.10;;;;;;;28.89;21.64;93101.28;5049542;28;20460;-42
2021/05/19 08:42:50;;;;;;;0.50;0.13;;;;;;;28.97;23.85;93107.84;5039627;28;20032;-44
2021/05/19 08:45:16;;;;;;;1.75;0.20;;;;;;;29.24;22.62;93112.66;5048760;28;20047;-43
2021/05/19 08:47:41;;;;;;;0.20;0.20;;;;;;;28.51;22.39;93113.25;5048610;28;20549;-44
2021/05/19 08:50:08;;;;;;;0.25;0.17;;;;;;;28.56;23.68;93110.50;5061470;28;20031;-43
2021/05/19 08:52:38;;;;;;;0.22;0.20;;;;;;;28.43;23.12;93104.56;5067798;28;20028;-42
2021/05/19 08:55:09;;;;;;;0.75;0.40;;;;;;;28.72;23.88;93096.69;5067161;28;20031;-42
2021/05/19 08:57:36;;;;;;;0.73;0.40;;;;;;;28.43;24.34;93104.56;5067039;28;20028;-44
2021/05/19 09:00:04;;;;;;;0.98;0.57;;;;;;;28.86;23.78;93108.31;5067611;28;20043;-43
2021/05/19 09:02:29;;;;;;;1.50;0.68;;;;;;;29.57;21.61;93108.31;5068706;28;20485;-41
2021/05/19 09:04:58;;;;;;;0.15;0.10;;;;;;;30.18;20.96;93106.50;5069172;28;20035;-42
2021/05/19 09:07:25;;;;;;;0.20;0.20;;;;;;;32.15;20.64;93095.41;5068857;28;20044;-42
2021/05/19 09:09:50;;;;;;;0.00;0.00;;;;;;;33.34;18.78;93098.25;5068907;28;20036;-44
2021/05/19 09:12:16;;;;;;;0.10;0.10;;;;;;;34.02;18.26;93097.75;5069190;28;20032;-45
2021/05/19 09:14:46;;;;;;;0.13;0.13;;;;;;;34.16;18.54;93094.88;5069152;28;20028;-43
2021/05/19 09:17:26;;;;;;;0.13;0.13;;;;;;;33.32;19.03;93101.84;5069149;28;20036;-45
2021/05/19 09:20:04;;;;;;;0.73;0.10;;;;;;;31.89;19.23;93098.00;5061550;28;20033;-42
2021/05/19 09:22:33;;;;;;;0.25;0.10;;;;;;;31.02;20.37;93101.31;5068944;28;20047;-43
2021/05/19 09:24:59;;;;;;;0.40;0.20;;;;;;;29.35;19.27;93087.25;5068779;28;20024;-43
2021/05/19 09:27:37;;;;;;;0.80;0.30;;;;;;;27.48;22.27;93093.00;5069052;28;20087;-43
2021/05/19 09:30:03;;;;;;;1.80;0.43;;;;;;;26.72;25.48;93091.63;5068024;28;20493;-42
2021/05/19 09:32:33;;;;;;;0.32;0.30;;;;;;;25.51;25.29;93081.50;5068188;28;20056;-42
2021/05/19 09:35:00;;;;;;;1.30;0.38;;;;;;;25.76;25.25;93075.22;5068568;28;20028;-42
2021/05/19 09:37:28;;;;;;;0.50;0.50;;;;;;;25.70;24.78;93085.63;5067014;28;20028;-44
2021/05/19 09:40:05;;;;;;;0.30;0.20;;;;;;;25.23;25.15;93089.00;5066487;28;20029;-44
2021/05/19 09:42:37;;;;;;;0.20;0.20;;;;;;;24.60;27.03;93086.75;5064714;28;20028;-45
2021/05/19 09:45:41;;;;;;;0.30;0.20;;;;;;;24.68;26.66;93089.16;5065672;28;20540;-44
2021/05/19 09:48:07;;;;;;;1.55;0.22;;;;;;;24.72;28.22;93083.66;5066422;28;20028;-45
2021/05/19 09:50:35;;;;;;;0.30;0.25;;;;;;;25.40;26.11;93077.56;5068511;28;20081;-46
2021/05/19 09:53:08;;;;;;;0.10;0.10;;;;;;;25.40;27.78;93074.72;5068469;28;20393;-43
2021/05/19 09:55:36;;;;;;;0.40;0.25;;;;;;;25.65;26.49;93070.63;5065591;28;20025;-46
2021/05/19 09:58:02;;;;;;;0.65;0.20;;;;;;;25.71;25.18;93068.00;5065568;28;20049;-44
2021/05/19 10:00:30;;;;;;;0.13;0.13;;;;;;;25.68;25.55;93062.94;5050321;28;20044;-47
2021/05/19 10:02:55;;;;;;;1.20;0.40;;;;;;;26.35;25.30;93060.81;5065941;28;20024;-44
2021/05/19 10:05:25;;;;;;;0.22;0.20;;;;;;;26.61;23.14;93052.34;5069198;28;20022;-47
2021/05/19 10:07:53;;;;;;;0.65;0.40;;;;;;;26.22;23.59;93037.09;5068766;28;20013;-45
2021/05/19 10:10:18;;;;;;;3.17;0.63;;;;;;;26.87;27.17;93053.81;5069168;28;20036;-47
2021/05/19 10:12:45;;;;;;;0.43;0.40;;;;;;;27.61;26.43;93046.53;5069374;28;20020;-46
2021/05/19 10:15:22;;;;;;;0.38;0.35;;;;;;;28.47;23.13;93047.13;5069018;28;20025;-45
2021/05/19 10:17:49;;;;;;;0.40;0.20;;;;;;;27.25;22.93;93054.09;5069352;28;20108;-47
2021/05/19 10:20:18;;;;;;;0.35;0.35;;;;;;;28.05;22.11;93044.06;5050821;28;20025;-46
2021/05/19 10:22:45;;;;;;;0.32;0.30;;;;;;;28.00;24.76;93042.53;5069364;28;20017;-45
2021/05/19 10:25:32;;;;;;;0.50;0.28;;;;;;;29.44;24.03;93038.38;5069235;28;20031;-45
2021/05/19 10:28:00;;;;;;;0.20;0.20;;;;;;;30.29;21.82;93025.50;5068969;28;20086;-45
2021/05/19 10:30:31;;;;;;;0.60;0.25;;;;;;;30.43;20.83;93031.44;5069228;28;20020;-44
2021/05/19 10:32:56;;;;;;;0.40;0.20;;;;;;;29.40;20.48;93031.91;5069181;28;20139;-47
2021/05/19 10:35:35;;;;;;;0.30;0.30;;;;;;;30.57;20.55;93031.59;5050910;28;20424;-46
2021/05/19 10:38:18;;;;;;;0.20;0.20;;;;;;;31.28;19.76;93010.34;5069191;28;20566;-45
2021/05/19 10:40:54;;;;;;;0.30;0.25;;;;;;;29.76;19.70;93013.34;5069085;28;20112;-48
2021/05/19 10:43:20;;;;;;;0.68;0.30;;;;;;;29.02;19.05;93009.16;5072721;28;20056;-47
2021/05/19 10:46:00;;;;;;;0.15;0.15;;;;;;;28.68;21.81;92994.28;5072719;28;20504;-46
2021/05/19 10:48:27;;;;;;;0.50;0.47;;;;;;;28.03;21.58;93001.44;5072928;28;20423;-45
2021/05/19 10:50:59;;;;;;;0.35;0.30;;;;;;;28.02;20.92;93002.84;5072544;28;20021;-46
2021/05/19 10:59:12;;;;;;;0.55;0.20;;;;;;;30.24;21.67;92992.66;5072368;28;20499;-46
2021/05/19 11:01:41;;;;;;;0.17;0.17;;;;;;;31.18;20.59;92993.13;5072698;28;20032;-45
2021/05/19 11:04:14;;;;;;;1.95;0.60;;;;;;;31.48;19.88;92989.88;5072282;28;20028;-46
2021/05/19 11:07:00;;;;;;;0.13;0.13;;;;;;;31.66;19.82;92985.06;5070781;28;20047;-47
2021/05/19 11:09:31;;;;;;;0.10;0.10;;;;;;;31.22;21.41;92976.78;5068616;28;20020;-49
2021/05/19 11:12:26;;;;;;;0.20;0.20;;;;;;;31.03;20.04;92968.75;5148809;22;20042;-49
2021/05/19 11:17:51;;;;;;;0.20;0.20;;;;;;;28.88;22.12;92964.16;5057551;28;20052;-45
2021/05/19 11:20:16;;;;;;;0.22;0.22;;;;;;;28.29;21.97;92958.69;5058853;28;20025;-48
2021/05/19 11:22:42;;;;;;;0.40;0.30;;;;;;;27.95;22.06;92960.78;5043599;28;20448;-46
2021/05/19 11:25:09;;;;;;;0.60;0.30;;;;;;;28.17;22.22;92964.13;5057485;28;20029;-48
2021/05/19 11:27:35;;;;;;;0.20;0.20;;;;;;;26.59;21.56;92961.66;5050605;28;20025;-48
2021/05/19 11:30:04;;;;;;;0.50;0.30;;;;;;;27.19;23.35;92951.91;5057790;28;20048;-46
2021/05/19 11:32:30;;;;;;;;;;;;;;;27.61;27.66;92946.56;5061985;28;20068;-47
2021/05/19 11:35:16;;;;;;;0.40;0.40;;;;;;;27.70;25.66;92936.81;5059706;28;20499;-50
2021/05/19 11:37:56;;;;;;;0.38;0.20;;;;;;;27.60;24.18;92933.78;5057958;28;20459;-48
2021/05/19 11:40:22;;;;;;;5.25;1.65;;;;;;;27.66;26.37;92928.22;5053359;28;20025;-46
2021/05/19 11:42:55;;;;;;;0.30;0.30;;;;;;;27.93;25.39;92930.25;5061099;28;20064;-47
2021/05/19 11:45:23;;;;;;;0.50;0.30;;;;;;;28.09;25.09;92924.22;5057176;28;20124;-47
2021/05/19 11:47:49;;;;;;;0.20;0.20;;;;;;;28.08;25.61;92932.03;5059375;28;20036;-47